createdAt,value
2019-01-04T00:00:31.748Z,79.76
2019-01-04T00:01:31.692Z,79.76
2019-01-04T00:02:31.663Z,79.47
2019-01-04T00:03:31.620Z,79.19
2019-01-04T00:04:31.577Z,78.43
2019-01-04T00:05:31.548Z,78.05
2019-01-04T00:06:31.514Z,78.81
2019-01-04T00:07:31.472Z,78.81
2019-01-04T00:08:31.441Z,79.28
2019-01-04T00:09:31.401Z,79.66
2019-01-04T00:10:31.363Z,79.95
2019-01-04T00:11:31.322Z,80.90
2019-01-04T00:12:31.277Z,80.52
2019-01-04T00:13:31.257Z,78.62
2019-01-04T00:14:31.207Z,77.86
2019-01-04T00:15:31.168Z,77.77
2019-01-04T00:16:31.123Z,77.77
2019-01-04T00:17:31.104Z,79.28
2019-01-04T00:18:31.064Z,79.95
2019-01-04T00:19:31.022Z,79.57
2019-01-04T00:20:31.013Z,79.28
2019-01-04T00:21:31.033Z,79.47
2019-01-04T00:22:30.963Z,80.43
2019-01-04T00:23:30.872Z,79.95
2019-01-04T00:24:30.844Z,80.52
2019-01-04T00:25:30.804Z,80.52
2019-01-04T00:26:30.782Z,79.76
2019-01-04T00:27:30.732Z,79.95
2019-01-04T00:28:30.702Z,80.62
2019-01-04T00:29:30.648Z,79.95
2019-01-04T00:30:30.619Z,79.95
2019-01-04T00:31:30.592Z,80.52
2019-01-04T00:32:30.533Z,80.62
2019-01-04T00:33:30.506Z,80.24
2019-01-04T00:34:30.489Z,79.57
2019-01-04T00:35:30.423Z,80.80
2019-01-04T00:36:30.413Z,80.90
2019-01-04T00:37:30.355Z,81.27
2019-01-04T00:38:30.329Z,80.90
2019-01-04T00:39:30.284Z,80.62
2019-01-04T00:40:30.243Z,81.47
2019-01-04T00:41:30.209Z,81.27
2019-01-04T00:42:30.159Z,80.90
2019-01-04T00:43:30.125Z,81.18
2019-01-04T00:44:30.090Z,81.27
2019-01-04T00:45:30.040Z,81.37
2019-01-04T00:46:30.013Z,82.04
2019-01-04T00:47:29.974Z,82.23
2019-01-04T00:48:29.942Z,82.32
2019-01-04T00:49:29.894Z,83.08
2019-01-04T00:50:29.853Z,82.13
2019-01-04T00:51:29.818Z,81.18
2019-01-04T00:52:29.784Z,80.90
2019-01-04T00:53:29.749Z,80.80
2019-01-04T00:54:29.714Z,81.18
2019-01-04T00:55:29.669Z,81.75
2019-01-04T00:56:29.656Z,82.04
2019-01-04T00:57:29.605Z,81.94
2019-01-04T00:58:29.565Z,81.94
2019-01-04T00:59:29.520Z,82.23
2019-01-04T01:00:29.485Z,82.51
2019-01-04T01:01:29.451Z,82.42
2019-01-04T01:02:29.422Z,83.46
2019-01-04T01:03:29.379Z,82.23
2019-01-04T01:04:29.336Z,82.04
2019-01-04T01:05:29.303Z,81.09
2019-01-04T01:06:29.263Z,81.09
2019-01-04T01:07:29.225Z,81.66
2019-01-04T01:08:29.191Z,81.09
2019-01-04T01:09:29.158Z,81.47
2019-01-04T01:10:29.126Z,81.75
2019-01-04T01:11:29.081Z,81.37
2019-01-04T01:12:29.039Z,82.60
2019-01-04T01:13:29.006Z,81.09
2019-01-04T01:14:28.965Z,81.37
2019-01-04T01:15:28.926Z,81.47
2019-01-04T01:16:28.901Z,82.04
2019-01-04T01:17:28.850Z,82.04
2019-01-04T01:18:28.823Z,81.94
2019-01-04T01:19:28.782Z,80.90
2019-01-04T01:20:28.744Z,80.80
2019-01-04T01:21:28.704Z,80.43
2019-01-04T01:22:28.671Z,80.71
2019-01-04T01:23:28.624Z,80.43
2019-01-04T01:24:28.599Z,79.47
2019-01-04T01:25:28.562Z,77.77
2019-01-04T01:26:28.527Z,76.40
2019-01-04T01:27:28.479Z,76.82
2019-01-04T01:28:28.454Z,76.40
2019-01-04T01:29:28.415Z,76.54
2019-01-04T01:30:28.379Z,76.54
2019-01-04T01:31:28.334Z,75.55
2019-01-04T01:32:28.289Z,75.07
2019-01-04T01:33:28.275Z,74.98
2019-01-04T01:34:28.225Z,74.69
2019-01-04T01:35:28.176Z,74.32
2019-01-04T01:36:28.139Z,74.69
2019-01-04T01:37:28.110Z,74.13
2019-01-04T01:38:28.068Z,73.46
2019-01-04T01:39:28.042Z,72.99
2019-01-04T01:40:27.987Z,72.61
2019-01-04T01:41:27.960Z,74.22
2019-01-04T01:42:27.916Z,73.56
2019-01-04T01:43:27.902Z,74.13
2019-01-04T01:44:27.864Z,73.08
2019-01-04T01:45:27.805Z,73.56
2019-01-04T01:46:27.758Z,72.80
2019-01-04T01:47:27.727Z,73.18
2019-01-04T01:48:27.692Z,74.22
2019-01-04T01:49:27.647Z,74.03
2019-01-04T01:50:27.622Z,75.26
2019-01-04T01:51:27.582Z,74.98
2019-01-04T01:52:27.536Z,73.65
2019-01-04T01:53:27.493Z,73.75
2019-01-04T01:54:27.467Z,73.94
2019-01-04T01:55:27.435Z,74.79
2019-01-04T01:56:27.388Z,74.51
2019-01-04T01:57:27.354Z,75.07
2019-01-04T01:58:27.333Z,74.88
2019-01-04T01:59:27.272Z,74.41
2019-01-04T02:00:27.242Z,75.74
2019-01-04T02:01:27.198Z,75.74
2019-01-04T02:02:27.168Z,76.50
2019-01-04T02:03:27.127Z,74.22
2019-01-04T02:04:27.091Z,74.60
2019-01-04T02:05:27.051Z,74.22
2019-01-04T02:06:27.011Z,73.56
2019-01-04T02:07:26.976Z,73.08
2019-01-04T02:08:26.932Z,72.61
2019-01-04T02:09:26.894Z,71.47
2019-01-04T02:10:26.869Z,71.57
2019-01-04T02:11:26.816Z,71.57
2019-01-04T02:12:26.801Z,72.04
2019-01-04T02:13:26.737Z,71.57
2019-01-04T02:14:26.708Z,71.76
2019-01-04T02:15:26.673Z,72.89
2019-01-04T02:16:26.635Z,71.28
2019-01-04T02:17:26.597Z,71.47
2019-01-04T02:18:26.551Z,70.72
2019-01-04T02:19:26.513Z,70.34
2019-01-04T02:20:26.479Z,70.90
2019-01-04T02:21:26.438Z,71.09
2019-01-04T02:22:26.411Z,71.00
2019-01-04T02:23:26.367Z,70.90
2019-01-04T02:24:26.334Z,70.53
2019-01-04T02:25:26.287Z,72.33
2019-01-04T02:26:26.248Z,71.85
2019-01-04T02:27:26.217Z,71.19
2019-01-04T02:28:26.178Z,71.28
2019-01-04T02:29:26.133Z,71.57
2019-01-04T02:30:26.104Z,72.42
2019-01-04T02:31:26.058Z,72.04
2019-01-04T02:32:26.017Z,72.99
2019-01-04T02:33:25.988Z,72.80
2019-01-04T02:34:25.952Z,72.80
2019-01-04T02:35:25.907Z,73.27
2019-01-04T02:36:25.880Z,72.89
2019-01-04T02:37:25.848Z,72.99
2019-01-04T02:38:25.798Z,72.89
2019-01-04T02:39:25.753Z,72.42
2019-01-04T02:40:25.724Z,72.99
2019-01-04T02:41:25.683Z,73.08
2019-01-04T02:42:25.644Z,72.80
2019-01-04T02:43:25.611Z,73.56
2019-01-04T02:44:25.601Z,73.37
2019-01-04T02:45:25.530Z,73.97
2019-01-04T02:46:25.506Z,74.79
2019-01-04T02:47:25.463Z,74.98
2019-01-04T02:48:25.415Z,74.92
2019-01-04T02:49:25.383Z,75.40
2019-01-04T02:50:25.344Z,75.93
2019-01-04T02:51:25.311Z,75.36
2019-01-04T02:52:25.280Z,75.45
2019-01-04T02:53:25.229Z,75.11
2019-01-04T02:54:25.196Z,75.96
2019-01-04T02:55:25.161Z,75.78
2019-01-04T02:56:25.120Z,76.12
2019-01-04T02:57:25.085Z,75.45
2019-01-04T02:58:25.038Z,75.45
2019-01-04T02:59:25.012Z,75.36
2019-01-04T03:00:24.969Z,75.26
2019-01-04T03:01:24.935Z,74.51
2019-01-04T03:02:24.895Z,74.13
2019-01-04T03:03:24.844Z,74.32
2019-01-04T03:04:24.815Z,74.13
2019-01-04T03:05:24.775Z,73.08
2019-01-04T03:06:24.737Z,72.99
2019-01-04T03:07:24.701Z,73.37
2019-01-04T03:08:24.670Z,74.41
2019-01-04T03:09:24.639Z,73.46
2019-01-04T03:10:24.587Z,73.37
2019-01-04T03:11:24.547Z,72.99
2019-01-04T03:12:24.511Z,73.27
2019-01-04T03:13:24.488Z,72.80
2019-01-04T03:14:24.439Z,72.61
2019-01-04T03:15:24.402Z,73.84
2019-01-04T03:16:24.355Z,73.65
2019-01-04T03:17:24.322Z,73.18
2019-01-04T03:18:24.297Z,72.33
2019-01-04T03:19:24.247Z,71.95
2019-01-04T03:20:24.207Z,72.23
2019-01-04T03:21:24.176Z,72.14
2019-01-04T03:22:24.150Z,72.14
2019-01-04T03:23:24.100Z,72.55
2019-01-04T03:24:24.071Z,73.60
2019-01-04T03:25:24.020Z,74.92
2019-01-04T03:26:23.991Z,75.64
2019-01-04T03:27:23.941Z,75.26
2019-01-04T03:28:23.910Z,74.22
2019-01-04T03:29:23.872Z,73.75
2019-01-04T03:30:23.837Z,74.22
2019-01-04T03:31:23.793Z,73.37
2019-01-04T03:32:23.767Z,74.51
2019-01-04T03:33:23.727Z,74.98
2019-01-04T03:34:23.681Z,72.89
2019-01-04T03:35:23.648Z,74.13
2019-01-04T03:36:23.602Z,72.61
2019-01-04T03:37:23.571Z,72.71
2019-01-04T03:38:23.532Z,74.13
2019-01-04T03:39:23.492Z,73.08
2019-01-04T03:40:23.463Z,74.32
2019-01-04T03:41:23.413Z,72.71
2019-01-04T03:42:23.372Z,73.65
2019-01-04T03:43:23.336Z,74.03
2019-01-04T03:44:23.315Z,74.13
2019-01-04T03:45:23.272Z,74.60
2019-01-04T03:46:23.244Z,74.60
2019-01-04T03:47:23.197Z,73.94
2019-01-04T03:48:23.160Z,74.32
2019-01-04T03:49:23.118Z,72.61
2019-01-04T03:50:23.074Z,73.84
2019-01-04T03:51:23.045Z,74.03
2019-01-04T03:52:23.006Z,73.37
2019-01-04T03:53:22.984Z,71.57
2019-01-04T03:54:22.931Z,72.42
2019-01-04T03:55:22.887Z,72.04
2019-01-04T03:56:22.876Z,71.57
2019-01-04T03:57:22.840Z,71.95
2019-01-04T03:58:22.786Z,70.43
2019-01-04T03:59:22.742Z,70.43
2019-01-04T04:00:22.697Z,71.00
2019-01-04T04:01:22.678Z,71.66
2019-01-04T04:02:22.633Z,73.27
2019-01-04T04:03:22.583Z,72.23
2019-01-04T04:04:22.549Z,72.33
2019-01-04T04:05:22.508Z,72.42
2019-01-04T04:06:22.464Z,72.04
2019-01-04T04:07:22.440Z,71.85
2019-01-04T04:08:22.399Z,71.47
2019-01-04T04:09:22.357Z,70.90
2019-01-04T04:10:22.322Z,69.67
2019-01-04T04:11:22.288Z,69.77
2019-01-04T04:12:22.258Z,70.43
2019-01-04T04:13:22.221Z,71.85
2019-01-04T04:14:22.177Z,73.08
2019-01-04T04:15:22.134Z,72.80
2019-01-04T04:16:22.099Z,72.61
2019-01-04T04:17:22.068Z,71.19
2019-01-04T04:18:22.027Z,71.38
2019-01-04T04:19:21.979Z,71.47
2019-01-04T04:20:21.977Z,72.99
2019-01-04T04:21:21.914Z,71.76
2019-01-04T04:22:21.875Z,71.28
2019-01-04T04:23:21.838Z,70.15
2019-01-04T04:24:21.816Z,70.43
2019-01-04T04:25:21.752Z,71.28
2019-01-04T04:26:21.722Z,71.47
2019-01-04T04:27:21.678Z,72.33
2019-01-04T04:28:21.653Z,72.04
2019-01-04T04:29:21.603Z,72.89
2019-01-04T04:30:21.570Z,73.27
2019-01-04T04:31:21.523Z,73.94
2019-01-04T04:32:21.495Z,73.75
2019-01-04T04:33:21.480Z,74.51
2019-01-04T04:34:21.417Z,74.13
2019-01-04T04:35:21.375Z,73.46
2019-01-04T04:36:21.349Z,73.56
2019-01-04T04:37:21.305Z,73.37
2019-01-04T04:38:21.261Z,73.46
2019-01-04T04:39:21.303Z,72.80
2019-01-04T04:40:21.189Z,72.89
2019-01-04T04:41:21.150Z,73.08
2019-01-04T04:42:21.115Z,74.13
2019-01-04T04:43:21.075Z,73.37
2019-01-04T04:44:21.042Z,73.46
2019-01-04T04:45:20.999Z,73.56
2019-01-04T04:46:20.970Z,74.22
2019-01-04T04:47:20.921Z,74.79
2019-01-04T04:48:20.886Z,72.99
2019-01-04T04:49:20.855Z,71.57
2019-01-04T04:50:20.809Z,71.38
2019-01-04T04:51:20.776Z,71.28
2019-01-04T04:52:20.740Z,71.28
2019-01-04T04:53:20.704Z,70.43
2019-01-04T04:54:20.664Z,71.38
2019-01-04T04:55:20.624Z,72.04
2019-01-04T04:56:20.586Z,73.84
2019-01-04T04:57:20.552Z,73.18
2019-01-04T04:58:20.507Z,74.13
2019-01-04T04:59:20.476Z,73.94
2019-01-04T05:00:20.442Z,73.27
2019-01-04T05:01:20.402Z,73.27
2019-01-04T05:02:20.369Z,73.37
2019-01-04T05:03:20.317Z,73.84
2019-01-04T05:04:20.282Z,73.41
2019-01-04T05:05:20.249Z,74.32
2019-01-04T05:06:20.216Z,74.13
2019-01-04T05:07:20.186Z,74.98
2019-01-04T05:08:20.143Z,74.98
2019-01-04T05:09:20.100Z,74.22
2019-01-04T05:10:20.056Z,74.98
2019-01-04T05:11:20.018Z,74.22
2019-01-04T05:12:19.991Z,74.32
2019-01-04T05:13:19.978Z,73.18
2019-01-04T05:14:19.907Z,72.71
2019-01-04T05:15:19.868Z,72.89
2019-01-04T05:16:19.842Z,74.41
2019-01-04T05:17:19.792Z,74.69
2019-01-04T05:18:19.787Z,74.64
2019-01-04T05:19:19.724Z,74.88
2019-01-04T05:20:19.675Z,73.84
2019-01-04T05:21:19.650Z,72.99
2019-01-04T05:22:19.645Z,74.32
2019-01-04T05:23:19.570Z,73.65
2019-01-04T05:24:19.536Z,72.61
2019-01-04T05:25:19.488Z,73.18
2019-01-04T05:26:19.457Z,72.89
2019-01-04T05:27:19.417Z,73.27
2019-01-04T05:28:19.382Z,73.27
2019-01-04T05:29:19.348Z,74.60
2019-01-04T05:30:19.307Z,74.69
2019-01-04T05:31:19.273Z,73.18
2019-01-04T05:32:19.228Z,72.99
2019-01-04T05:33:19.189Z,73.08
2019-01-04T05:34:19.349Z,72.71
2019-01-04T05:35:19.885Z,72.23
2019-01-04T05:36:19.074Z,72.52
2019-01-04T05:37:19.442Z,72.04
2019-01-04T05:38:21.412Z,71.66
2019-01-04T05:39:21.429Z,70.53
2019-01-04T05:40:18.924Z,70.53
2019-01-04T05:41:18.892Z,71.47
2019-01-04T05:42:18.847Z,70.81
2019-01-04T05:43:18.816Z,69.86
2019-01-04T05:44:18.781Z,70.34
2019-01-04T05:45:18.741Z,70.43
2019-01-04T05:46:18.708Z,70.72
2019-01-04T05:47:18.667Z,71.00
2019-01-04T05:48:18.634Z,71.19
2019-01-04T05:49:18.587Z,71.28
2019-01-04T05:50:18.554Z,73.27
2019-01-04T05:51:18.518Z,73.37
2019-01-04T05:52:18.498Z,71.28
2019-01-04T05:53:18.444Z,71.47
2019-01-04T05:54:18.400Z,71.76
2019-01-04T05:55:18.367Z,71.66
2019-01-04T05:56:18.329Z,70.81
2019-01-04T05:57:18.290Z,70.62
2019-01-04T05:58:18.243Z,70.15
2019-01-04T05:59:18.209Z,69.86
2019-01-04T06:00:18.173Z,69.29
2019-01-04T06:01:18.143Z,70.90
2019-01-04T06:02:18.101Z,71.38
2019-01-04T06:03:18.059Z,71.19
2019-01-04T06:04:18.030Z,71.95
2019-01-04T06:05:17.992Z,71.95
2019-01-04T06:06:17.947Z,73.08
2019-01-04T06:07:17.913Z,71.66
2019-01-04T06:08:17.865Z,71.47
2019-01-04T06:09:17.845Z,71.38
2019-01-04T06:10:17.791Z,70.43
2019-01-04T06:11:17.759Z,69.86
2019-01-04T06:12:17.715Z,69.96
2019-01-04T06:13:17.693Z,69.77
2019-01-04T06:14:17.657Z,69.29
2019-01-04T06:15:17.603Z,69.01
2019-01-04T06:16:17.568Z,68.63
2019-01-04T06:17:17.533Z,68.15
2019-01-04T06:18:17.499Z,67.58
2019-01-04T06:19:17.453Z,67.02
2019-01-04T06:20:17.416Z,67.87
2019-01-04T06:21:17.381Z,68.44
2019-01-04T06:22:17.348Z,68.44
2019-01-04T06:23:17.325Z,67.49
2019-01-04T06:24:17.259Z,68.15
2019-01-04T06:25:17.241Z,68.06
2019-01-04T06:26:17.195Z,68.35
2019-01-04T06:27:17.154Z,68.44
2019-01-04T06:28:17.114Z,68.25
2019-01-04T06:29:17.076Z,67.87
2019-01-04T06:30:17.046Z,68.69
2019-01-04T06:31:16.995Z,67.87
2019-01-04T06:32:16.964Z,67.87
2019-01-04T06:33:16.923Z,67.77
2019-01-04T06:34:16.883Z,68.12
2019-01-04T06:35:16.859Z,66.32
2019-01-04T06:36:16.816Z,66.41
2019-01-04T06:37:16.768Z,66.51
2019-01-04T06:38:16.737Z,67.46
2019-01-04T06:39:16.703Z,67.93
2019-01-04T06:40:16.658Z,67.46
2019-01-04T06:41:16.619Z,67.49
2019-01-04T06:42:16.576Z,67.65
2019-01-04T06:43:16.547Z,68.63
2019-01-04T06:44:16.506Z,69.01
2019-01-04T06:45:16.460Z,69.17
2019-01-04T06:46:16.430Z,70.30
2019-01-04T06:47:16.386Z,70.30
2019-01-04T06:48:16.355Z,68.98
2019-01-04T06:49:16.321Z,68.31
2019-01-04T06:50:16.281Z,68.40
2019-01-04T06:51:16.278Z,67.65
2019-01-04T06:52:16.213Z,67.65
2019-01-04T06:53:16.183Z,68.40
2019-01-04T06:54:16.120Z,69.17
2019-01-04T06:55:16.091Z,69.07
2019-01-04T06:56:16.045Z,68.40
2019-01-04T06:57:16.006Z,67.83
2019-01-04T06:58:15.968Z,68.31
2019-01-04T06:59:15.936Z,68.98
2019-01-04T07:00:15.902Z,69.64
2019-01-04T07:01:15.852Z,70.20
2019-01-04T07:02:15.811Z,70.11
2019-01-04T07:03:15.787Z,68.98
2019-01-04T07:04:15.745Z,69.54
2019-01-04T07:05:15.705Z,68.59
2019-01-04T07:06:15.671Z,67.46
2019-01-04T07:07:15.623Z,67.27
2019-01-04T07:08:15.586Z,67.65
2019-01-04T07:09:15.551Z,66.57
2019-01-04T07:10:15.511Z,65.56
2019-01-04T07:11:15.473Z,65.63
2019-01-04T07:12:15.442Z,65.19
2019-01-04T07:13:15.398Z,65.28
2019-01-04T07:14:15.368Z,65.75
2019-01-04T07:15:15.323Z,66.70
2019-01-04T07:16:15.275Z,66.70
2019-01-04T07:17:15.236Z,67.83
2019-01-04T07:18:15.211Z,68.50
2019-01-04T07:19:15.167Z,69.45
2019-01-04T07:20:15.127Z,69.73
2019-01-04T07:21:15.088Z,69.92
2019-01-04T07:22:15.044Z,69.41
2019-01-04T07:23:15.012Z,68.88
2019-01-04T07:24:14.969Z,68.84
2019-01-04T07:25:14.934Z,68.02
2019-01-04T07:26:14.898Z,68.40
2019-01-04T07:27:14.858Z,69.82
2019-01-04T07:28:14.814Z,70.20
2019-01-04T07:29:14.788Z,69.35
2019-01-04T07:30:14.748Z,69.17
2019-01-04T07:31:14.714Z,69.54
2019-01-04T07:32:14.666Z,69.45
2019-01-04T07:33:14.632Z,69.13
2019-01-04T07:34:14.584Z,69.17
2019-01-04T07:35:14.549Z,69.22
2019-01-04T07:36:14.510Z,69.22
2019-01-04T07:37:14.481Z,68.08
2019-01-04T07:38:14.423Z,68.40
2019-01-04T07:39:14.398Z,67.36
2019-01-04T07:40:14.363Z,67.43
2019-01-04T07:41:14.329Z,68.21
2019-01-04T07:42:14.288Z,68.18
2019-01-04T07:43:16.525Z,67.24
2019-01-04T07:44:14.213Z,67.05
2019-01-04T07:45:14.154Z,66.76
2019-01-04T07:46:14.119Z,66.67
2019-01-04T07:47:14.124Z,66.00
2019-01-04T07:48:14.055Z,65.44
2019-01-04T07:49:14.014Z,65.15
2019-01-04T07:50:13.975Z,65.66
2019-01-04T07:51:13.937Z,66.47
2019-01-04T07:52:13.889Z,67.36
2019-01-04T07:53:13.859Z,67.65
2019-01-04T07:54:13.920Z,66.89
2019-01-04T07:55:13.790Z,67.27
2019-01-04T07:56:13.738Z,67.71
2019-01-04T07:57:13.704Z,67.71
2019-01-04T07:58:13.666Z,68.08
2019-01-04T07:59:13.634Z,67.90
2019-01-04T08:00:13.586Z,67.24
2019-01-04T08:01:13.560Z,66.60
2019-01-04T08:02:13.510Z,67.14
2019-01-04T08:03:13.474Z,67.90
2019-01-04T08:04:13.436Z,68.18
2019-01-04T08:05:13.386Z,67.24
2019-01-04T08:06:13.360Z,67.90
2019-01-04T08:07:13.323Z,67.99
2019-01-04T08:08:13.274Z,68.27
2019-01-04T08:09:13.248Z,67.33
2019-01-04T08:10:13.213Z,67.05
2019-01-04T08:11:13.159Z,68.08
2019-01-04T08:12:13.119Z,69.32
2019-01-04T08:13:13.089Z,69.13
2019-01-04T08:14:13.030Z,67.99
2019-01-04T08:15:13.010Z,67.33
2019-01-04T08:16:12.968Z,67.05
2019-01-04T08:17:12.929Z,67.80
2019-01-04T08:18:13.459Z,66.57
2019-01-04T08:19:12.855Z,65.72
2019-01-04T08:20:12.814Z,64.68
2019-01-04T08:21:12.779Z,64.58
2019-01-04T08:22:12.733Z,64.11
2019-01-04T08:23:12.702Z,63.92
2019-01-04T08:24:12.660Z,63.45
2019-01-04T08:25:12.615Z,62.21
2019-01-04T08:26:12.591Z,61.27
2019-01-04T08:27:12.560Z,61.65
2019-01-04T08:28:12.509Z,62.31
2019-01-04T08:29:12.471Z,62.43
2019-01-04T08:30:12.427Z,62.72
2019-01-04T08:31:12.396Z,63.10
2019-01-04T08:32:12.354Z,63.39
2019-01-04T08:33:12.306Z,63.48
2019-01-04T08:34:12.265Z,63.29
2019-01-04T08:35:12.237Z,63.57
2019-01-04T08:36:12.201Z,62.88
2019-01-04T08:37:12.169Z,62.34
2019-01-04T08:38:12.122Z,62.59
2019-01-04T08:39:12.077Z,62.24
2019-01-04T08:40:12.061Z,63.01
2019-01-04T08:41:12.012Z,62.91
2019-01-04T08:42:11.964Z,63.29
2019-01-04T08:43:11.982Z,63.01
2019-01-04T08:44:11.900Z,61.68
2019-01-04T08:45:11.870Z,60.83
2019-01-04T08:46:11.815Z,61.02
2019-01-04T08:47:11.772Z,61.30
2019-01-04T08:48:11.732Z,61.11
2019-01-04T08:49:11.705Z,60.54
2019-01-04T08:50:11.656Z,61.21
2019-01-04T08:51:11.624Z,61.21
2019-01-04T08:52:11.619Z,61.02
2019-01-04T08:53:11.551Z,61.11
2019-01-04T08:54:11.526Z,61.11
2019-01-04T08:55:11.463Z,60.54
2019-01-04T08:56:11.456Z,61.30
2019-01-04T08:57:11.393Z,60.83
2019-01-04T08:58:11.347Z,60.92
2019-01-04T08:59:11.313Z,61.11
2019-01-04T09:00:11.278Z,60.06
2019-01-04T09:01:11.233Z,63.39
2019-01-04T09:02:11.203Z,62.15
2019-01-04T09:03:11.163Z,62.62
2019-01-04T09:04:11.129Z,62.91
2019-01-04T09:05:11.083Z,63.10
2019-01-04T09:06:11.052Z,63.42
2019-01-04T09:07:11.074Z,63.60
2019-01-04T09:08:10.976Z,64.17
2019-01-04T09:09:10.931Z,64.93
2019-01-04T09:10:10.888Z,63.79
2019-01-04T09:11:10.856Z,62.66
2019-01-04T09:12:10.819Z,61.90
2019-01-04T09:13:10.804Z,61.33
2019-01-04T09:14:10.741Z,62.08
2019-01-04T09:15:10.707Z,61.43
2019-01-04T09:16:10.658Z,61.52
2019-01-04T09:17:10.629Z,61.43
2019-01-04T09:18:10.594Z,60.57
2019-01-04T09:19:11.462Z,62.18
2019-01-04T09:20:10.509Z,60.10
2019-01-04T09:21:10.477Z,59.72
2019-01-04T09:22:10.433Z,59.44
2019-01-04T09:23:10.407Z,56.59
2019-01-04T09:24:10.354Z,56.49
2019-01-04T09:25:10.326Z,58.11
2019-01-04T09:26:10.297Z,58.29
2019-01-04T09:27:10.248Z,56.30
2019-01-04T09:28:10.212Z,54.32
2019-01-04T09:29:10.177Z,56.40
2019-01-04T09:30:10.139Z,56.30
2019-01-04T09:31:10.099Z,57.06
2019-01-04T09:32:10.069Z,56.49
2019-01-04T09:33:10.068Z,56.30
2019-01-04T09:34:09.994Z,54.79
2019-01-04T09:35:09.952Z,52.98
2019-01-04T09:36:09.916Z,52.04
2019-01-04T09:37:09.873Z,52.04
2019-01-04T09:38:09.833Z,57.82
2019-01-04T09:39:09.801Z,55.36
2019-01-04T09:40:09.763Z,54.03
2019-01-04T09:41:09.718Z,52.98
2019-01-04T09:42:09.688Z,52.98
2019-01-04T09:43:09.653Z,50.62
2019-01-04T09:44:09.604Z,50.90
2019-01-04T09:45:09.575Z,50.62
2019-01-04T09:46:09.531Z,48.72
2019-01-04T09:47:09.484Z,48.25
2019-01-04T09:48:09.461Z,46.54
2019-01-04T09:49:09.429Z,47.77
2019-01-04T09:50:09.384Z,48.91
2019-01-04T09:51:09.341Z,47.96
2019-01-04T09:52:09.305Z,47.49
2019-01-04T09:53:09.289Z,45.50
2019-01-04T09:54:09.244Z,45.12
2019-01-04T09:55:09.198Z,45.50
2019-01-04T09:56:09.158Z,45.97
2019-01-04T09:57:09.118Z,44.36
2019-01-04T09:58:09.082Z,44.08
2019-01-04T09:59:09.035Z,44.84
2019-01-04T10:00:09.005Z,44.93
2019-01-04T10:01:08.973Z,45.21
2019-01-04T10:02:08.930Z,45.31
2019-01-04T10:03:08.885Z,44.65
2019-01-04T10:04:08.846Z,46.35
2019-01-04T10:05:08.807Z,47.58
2019-01-04T10:06:08.807Z,48.63
2019-01-04T10:07:08.735Z,47.68
2019-01-04T10:08:08.700Z,47.20
2019-01-04T10:09:08.671Z,49.19
2019-01-04T10:10:08.633Z,48.44
2019-01-04T10:11:08.594Z,47.96
2019-01-04T10:12:08.556Z,49.01
2019-01-04T10:13:08.514Z,48.91
2019-01-04T10:14:08.480Z,47.87
2019-01-04T10:15:08.435Z,51.28
2019-01-04T10:16:08.401Z,51.18
2019-01-04T10:17:08.354Z,50.24
2019-01-04T10:18:08.321Z,50.90
2019-01-04T10:19:08.291Z,51.57
2019-01-04T10:20:08.240Z,50.43
2019-01-04T10:21:08.211Z,51.09
2019-01-04T10:22:08.171Z,50.34
2019-01-04T10:23:08.136Z,49.57
2019-01-04T10:24:08.096Z,50.17
2019-01-04T10:25:08.061Z,52.14
2019-01-04T10:26:08.023Z,53.20
2019-01-04T10:27:07.980Z,53.39
2019-01-04T10:28:07.952Z,52.83
2019-01-04T10:29:07.912Z,52.61
2019-01-04T10:30:07.876Z,52.04
2019-01-04T10:31:07.832Z,52.51
2019-01-04T10:32:07.801Z,53.39
2019-01-04T10:33:07.758Z,53.39
2019-01-04T10:34:07.721Z,55.10
2019-01-04T10:35:10.551Z,56.24
2019-01-04T10:36:07.645Z,54.91
2019-01-04T10:37:07.615Z,54.15
2019-01-04T10:38:07.564Z,55.19
2019-01-04T10:39:07.532Z,54.91
2019-01-04T10:40:10.984Z,55.86
2019-01-04T10:41:07.461Z,57.66
2019-01-04T10:42:07.426Z,58.51
2019-01-04T10:43:07.386Z,60.22
2019-01-04T10:44:07.342Z,58.99
2019-01-04T10:45:07.317Z,59.66
2019-01-04T10:46:07.273Z,57.38
2019-01-04T10:47:07.238Z,59.66
2019-01-04T10:48:07.196Z,60.41
2019-01-04T10:49:07.171Z,58.33
2019-01-04T10:50:07.112Z,60.41
2019-01-04T10:51:07.093Z,58.23
2019-01-04T10:52:07.056Z,57.38
2019-01-04T10:53:07.017Z,60.79
2019-01-04T10:54:06.962Z,60.79
2019-01-04T10:55:06.928Z,60.60
2019-01-04T10:56:06.892Z,59.08
2019-01-04T10:57:06.870Z,60.89
2019-01-04T10:58:06.833Z,61.27
2019-01-04T10:59:06.782Z,62.31
2019-01-04T11:00:06.748Z,59.75
2019-01-04T11:01:06.716Z,61.77
2019-01-04T11:02:06.717Z,63.26
2019-01-04T11:03:06.637Z,62.97
2019-01-04T11:04:06.591Z,64.01
2019-01-04T11:05:06.563Z,63.07
2019-01-04T11:06:06.532Z,61.36
2019-01-04T11:07:06.505Z,60.70
2019-01-04T11:08:06.447Z,63.54
2019-01-04T11:09:06.419Z,61.17
2019-01-04T11:10:06.374Z,61.27
2019-01-04T11:11:06.342Z,61.17
2019-01-04T11:12:06.312Z,62.59
2019-01-04T11:13:06.272Z,60.22
2019-01-04T11:14:06.243Z,57.57
2019-01-04T11:15:06.223Z,57.95
2019-01-04T11:16:06.163Z,57.28
2019-01-04T11:17:06.123Z,58.23
2019-01-04T11:18:09.897Z,60.31
2019-01-04T11:19:06.043Z,60.13
2019-01-04T11:20:06.994Z,60.60
2019-01-04T11:21:05.977Z,61.17
2019-01-04T11:22:05.934Z,62.40
2019-01-04T11:23:05.890Z,63.35
2019-01-04T11:24:05.848Z,63.64
2019-01-04T11:25:05.808Z,62.12
2019-01-04T11:26:05.782Z,61.46
2019-01-04T11:27:05.743Z,64.11
2019-01-04T11:28:05.708Z,62.88
2019-01-04T11:29:05.678Z,62.40
2019-01-04T11:30:05.668Z,63.35
2019-01-04T11:31:05.640Z,65.44
2019-01-04T11:32:05.558Z,64.68
2019-01-04T11:33:05.504Z,62.78
2019-01-04T11:34:05.483Z,62.50
2019-01-04T11:35:05.450Z,62.50
2019-01-04T11:36:05.434Z,65.06
2019-01-04T11:37:05.374Z,65.63
2019-01-04T11:38:05.344Z,64.40
2019-01-04T11:39:05.290Z,64.20
2019-01-04T11:40:05.278Z,62.97
2019-01-04T11:41:05.214Z,62.59
2019-01-04T11:42:05.184Z,63.45
2019-01-04T11:43:05.143Z,65.72
2019-01-04T11:44:05.116Z,67.33
2019-01-04T11:45:05.071Z,66.67
2019-01-04T11:46:05.028Z,65.25
2019-01-04T11:47:04.996Z,66.86
2019-01-04T11:48:04.977Z,66.86
2019-01-04T11:49:04.920Z,65.82
2019-01-04T11:50:04.910Z,67.71
2019-01-04T11:51:04.870Z,68.00
2019-01-04T11:52:04.805Z,66.86
2019-01-04T11:53:04.772Z,68.48
2019-01-04T11:54:04.735Z,69.52
2019-01-04T11:55:04.696Z,69.42
2019-01-04T11:56:04.655Z,68.85
2019-01-04T11:57:04.626Z,68.38
2019-01-04T11:58:04.589Z,68.76
2019-01-04T11:59:04.565Z,68.29
2019-01-04T12:00:04.520Z,67.33
2019-01-04T12:01:04.492Z,69.52
2019-01-04T12:02:04.434Z,69.65
2019-01-04T12:03:04.430Z,69.46
2019-01-04T12:04:04.394Z,72.78
2019-01-04T12:05:04.333Z,73.35
2019-01-04T12:06:04.301Z,74.01
2019-01-04T12:07:04.258Z,73.54
2019-01-04T12:08:04.215Z,73.44
2019-01-04T12:09:04.184Z,73.25
2019-01-04T12:10:04.145Z,74.30
2019-01-04T12:11:04.104Z,73.54
2019-01-04T12:12:04.066Z,75.87
2019-01-04T12:13:04.069Z,74.92
2019-01-04T12:14:04.006Z,75.15
2019-01-04T12:15:03.957Z,74.73
2019-01-04T12:16:03.910Z,75.31
2019-01-04T12:17:03.895Z,76.63
2019-01-04T12:18:03.837Z,75.21
2019-01-04T12:19:03.807Z,74.45
2019-01-04T12:20:03.775Z,71.89
2019-01-04T12:21:03.746Z,74.26
2019-01-04T12:22:03.682Z,73.12
2019-01-04T12:23:03.660Z,73.03
2019-01-04T12:24:03.630Z,72.45
2019-01-04T12:25:03.612Z,70.37
2019-01-04T12:26:03.547Z,70.09
2019-01-04T12:27:03.500Z,71.51
2019-01-04T12:28:03.471Z,71.32
2019-01-04T12:29:03.436Z,69.23
2019-01-04T12:30:03.397Z,69.99
2019-01-04T12:31:03.353Z,68.29
2019-01-04T12:32:03.314Z,66.48
2019-01-04T12:33:03.378Z,66.77
2019-01-04T12:34:03.251Z,66.96
2019-01-04T12:35:03.208Z,64.97
2019-01-04T12:36:03.167Z,65.53
2019-01-04T12:37:03.131Z,63.82
2019-01-04T12:38:03.087Z,62.69
2019-01-04T12:39:03.062Z,63.45
2019-01-04T12:40:03.022Z,62.59
2019-01-04T12:41:02.982Z,61.65
2019-01-04T12:42:02.946Z,58.51
2019-01-04T12:43:02.911Z,56.34
2019-01-04T12:44:02.917Z,55.96
2019-01-04T12:45:02.829Z,54.06
2019-01-04T12:46:02.793Z,53.11
2019-01-04T12:47:02.783Z,51.40
2019-01-04T12:48:02.746Z,51.40
2019-01-04T12:49:02.692Z,49.60
2019-01-04T12:50:02.651Z,50.93
2019-01-04T12:51:02.613Z,49.88
2019-01-04T12:52:02.567Z,50.55